sensor_id;sensor_type;location;lat;lon;timestamp;pressure;altitude;pressure_sealevel;temperature;humidity
45793;BME280;31495;42.740;22.908;2023-02-12T00:00:25;94050.22;;;-2.91;61.58
45793;BME280;31495;42.740;22.908;2023-02-12T00:01:25;94042.13;;;-2.96;61.47
45793;BME280;31495;42.740;22.908;2023-02-12T00:02:26;94042.13;;;-2.96;61.34
45793;BME280;31495;42.740;22.908;2023-02-12T00:03:25;94052.34;;;-2.85;61.64
45793;BME280;31495;42.740;22.908;2023-02-12T00:04:25;94035.47;;;-3.10;62.01
45793;BME280;31495;42.740;22.908;2023-02-12T00:05:24;94060.56;;;-3.07;62.21
45793;BME280;31495;42.740;22.908;2023-02-12T00:06:24;94048.38;;;-3.13;62.24
45793;BME280;31495;42.740;22.908;2023-02-12T00:07:24;94072.13;;;-3.03;62.15
45793;BME280;31495;42.740;22.908;2023-02-12T00:08:23;94054.81;;;-3.09;62.36
45793;BME280;31495;42.740;22.908;2023-02-12T00:09:23;94040.16;;;-3.17;61.87
45793;BME280;31495;42.740;22.908;2023-02-12T00:10:22;94045.38;;;-3.07;62.30
45793;BME280;31495;42.740;22.908;2023-02-12T00:11:24;94034.88;;;-3.14;61.72
45793;BME280;31495;42.740;22.908;2023-02-12T00:12:24;94034.56;;;-3.09;61.72
45793;BME280;31495;42.740;22.908;2023-02-12T00:13:24;94049.56;;;-3.06;61.63
45793;BME280;31495;42.740;22.908;2023-02-12T00:14:23;94031.56;;;-3.27;61.76
45793;BME280;31495;42.740;22.908;2023-02-12T00:15:22;94033.88;;;-3.24;62.02
45793;BME280;31495;42.740;22.908;2023-02-12T00:16:27;94071.63;;;-3.08;61.99
45793;BME280;31495;42.740;22.908;2023-02-12T00:17:27;94043.22;;;-3.24;62.25
45793;BME280;31495;42.740;22.908;2023-02-12T00:18:26;94039.56;;;-3.20;62.06
45793;BME280;31495;42.740;22.908;2023-02-12T00:19:26;94059.78;;;-3.07;61.98
45793;BME280;31495;42.740;22.908;2023-02-12T00:20:25;94072.66;;;-3.10;61.83
45793;BME280;31495;42.740;22.908;2023-02-12T00:21:24;94048.88;;;-3.21;61.42
45793;BME280;31495;42.740;22.908;2023-02-12T00:22:24;94045.16;;;-3.28;61.61
45793;BME280;31495;42.740;22.908;2023-02-12T00:23:23;94065.41;;;-3.28;61.96
45793;BME280;31495;42.740;22.908;2023-02-12T00:24:23;94036.34;;;-3.48;62.58
45793;BME280;31495;42.740;22.908;2023-02-12T00:25:23;94039.47;;;-3.44;62.79
45793;BME280;31495;42.740;22.908;2023-02-12T00:26:23;94070.66;;;-3.31;62.52
45793;BME280;31495;42.740;22.908;2023-02-12T00:27:23;94069.53;;;-3.40;62.89
45793;BME280;31495;42.740;22.908;2023-02-12T00:28:23;94026.22;;;-3.61;62.81
45793;BME280;31495;42.740;22.908;2023-02-12T00:29:22;94023.09;;;-3.64;63.02
45793;BME280;31495;42.740;22.908;2023-02-12T00:30:22;94048.28;;;-3.50;63.04
45793;BME280;31495;42.740;22.908;2023-02-12T00:31:26;94039.19;;;-3.53;62.90
45793;BME280;31495;42.740;22.908;2023-02-12T00:32:27;94039.31;;;-3.54;63.19
45793;BME280;31495;42.740;22.908;2023-02-12T00:33:26;94056.78;;;-3.38;62.68
45793;BME280;31495;42.740;22.908;2023-02-12T00:34:26;94037.56;;;-3.41;62.85
45793;BME280;31495;42.740;22.908;2023-02-12T00:35:25;94044.53;;;-3.32;62.43
45793;BME280;31495;42.740;22.908;2023-02-12T00:36:27;94051.22;;;-3.43;62.41
45793;BME280;31495;42.740;22.908;2023-02-12T00:37:27;94033.91;;;-3.49;62.96
45793;BME280;31495;42.740;22.908;2023-02-12T00:38:26;94061.94;;;-3.27;62.51
45793;BME280;31495;42.740;22.908;2023-02-12T00:39:26;94011.47;;;-3.54;62.43
45793;BME280;31495;42.740;22.908;2023-02-12T00:40:25;94054.44;;;-3.28;62.50
45793;BME280;31495;42.740;22.908;2023-02-12T00:41:25;94038.19;;;-3.50;62.47
45793;BME280;31495;42.740;22.908;2023-02-12T00:42:25;94040.72;;;-3.63;62.79
45793;BME280;31495;42.740;22.908;2023-02-12T00:43:24;94036.44;;;-3.62;62.74
45793;BME280;31495;42.740;22.908;2023-02-12T00:44:24;94041.22;;;-3.58;63.02
45793;BME280;31495;42.740;22.908;2023-02-12T00:45:23;94031.00;;;-3.56;62.96
45793;BME280;31495;42.740;22.908;2023-02-12T00:46:22;94047.19;;;-3.46;62.57
45793;BME280;31495;42.740;22.908;2023-02-12T00:47:22;94011.28;;;-3.64;62.91
45793;BME280;31495;42.740;22.908;2023-02-12T00:48:21;94001.06;;;-3.75;62.48
45793;BME280;31495;42.740;22.908;2023-02-12T00:49:21;94001.03;;;-3.62;62.68
45793;BME280;31495;42.740;22.908;2023-02-12T00:50:21;94024.44;;;-3.46;62.66
45793;BME280;31495;42.740;22.908;2023-02-12T00:51:20;94016.50;;;-3.41;62.20
45793;BME280;31495;42.740;22.908;2023-02-12T00:52:20;94030.75;;;-3.27;62.01
45793;BME280;31495;42.740;22.908;2023-02-12T00:53:19;93987.97;;;-3.56;62.34
45793;BME280;31495;42.740;22.908;2023-02-12T00:54:19;94026.31;;;-3.37;62.03
45793;BME280;31495;42.740;22.908;2023-02-12T00:55:18;94026.31;;;-3.37;62.41
45793;BME280;31495;42.740;22.908;2023-02-12T00:56:18;94018.84;;;-3.51;62.32
45793;BME280;31495;42.740;22.908;2023-02-12T00:57:17;94017.53;;;-3.44;62.85
45793;BME280;31495;42.740;22.908;2023-02-12T00:58:17;94017.25;;;-3.65;62.70
45793;BME280;31495;42.740;22.908;2023-02-12T00:59:16;94007.41;;;-3.95;63.02
45793;BME280;31495;42.740;22.908;2023-02-12T01:00:16;94012.72;;;-3.98;63.37
45793;BME280;31495;42.740;22.908;2023-02-12T01:01:16;94029.50;;;-3.72;63.44
45793;BME280;31495;42.740;22.908;2023-02-12T01:02:15;94039.81;;;-3.62;63.43
45793;BME280;31495;42.740;22.908;2023-02-12T01:03:16;94004.31;;;-3.86;63.49
45793;BME280;31495;42.740;22.908;2023-02-12T01:04:16;94043.75;;;-3.58;63.57
45793;BME280;31495;42.740;22.908;2023-02-12T01:05:16;94018.03;;;-3.64;63.50
45793;BME280;31495;42.740;22.908;2023-02-12T01:06:16;94022.09;;;-3.62;63.33
45793;BME280;31495;42.740;22.908;2023-02-12T01:07:15;93969.81;;;-4.00;63.12
45793;BME280;31495;42.740;22.908;2023-02-12T01:08:15;94030.88;;;-3.55;63.32
45793;BME280;31495;42.740;22.908;2023-02-12T01:09:16;94026.31;;;-3.49;63.17
45793;BME280;31495;42.740;22.908;2023-02-12T01:10:16;94015.41;;;-3.50;62.76
45793;BME280;31495;42.740;22.908;2023-02-12T01:11:15;94012.97;;;-3.52;62.71
45793;BME280;31495;42.740;22.908;2023-02-12T01:12:15;94035.63;;;-3.37;62.85
45793;BME280;31495;42.740;22.908;2023-02-12T01:13:14;94009.75;;;-3.66;62.83
45793;BME280;31495;42.740;22.908;2023-02-12T01:14:13;94008.53;;;-3.61;63.31
45793;BME280;31495;42.740;22.908;2023-02-12T01:15:14;94004.50;;;-3.51;62.87
45793;BME280;31495;42.740;22.908;2023-02-12T01:16:17;94021.66;;;-3.43;62.81
45793;BME280;31495;42.740;22.908;2023-02-12T01:17:17;94001.66;;;-3.59;62.56
45793;BME280;31495;42.740;22.908;2023-02-12T01:18:17;94007.91;;;-3.52;62.70
45793;BME280;31495;42.740;22.908;2023-02-12T01:19:16;94014.31;;;-3.46;62.38
45793;BME280;31495;42.740;22.908;2023-02-12T01:20:19;94023.31;;;-3.55;63.16
45793;BME280;31495;42.740;22.908;2023-02-12T01:21:21;94020.28;;;-3.73;63.35
45793;BME280;31495;42.740;22.908;2023-02-12T01:22:21;94016.66;;;-3.68;63.18
45793;BME280;31495;42.740;22.908;2023-02-12T01:23:21;94017.25;;;-3.65;62.76
45793;BME280;31495;42.740;22.908;2023-02-12T01:24:20;93999.84;;;-3.82;63.31
45793;BME280;31495;42.740;22.908;2023-02-12T01:25:20;94005.09;;;-3.85;63.10
45793;BME280;31495;42.740;22.908;2023-02-12T01:26:20;94024.34;;;-3.57;63.26
45793;BME280;31495;42.740;22.908;2023-02-12T01:27:20;94022.31;;;-3.65;63.20
45793;BME280;31495;42.740;22.908;2023-02-12T01:28:20;94015.00;;;-3.70;63.31
45793;BME280;31495;42.740;22.908;2023-02-12T01:29:19;94011.16;;;-3.62;63.13
45793;BME280;31495;42.740;22.908;2023-02-12T01:30:19;94011.97;;;-3.62;62.96
45793;BME280;31495;42.740;22.908;2023-02-12T01:31:24;94029.88;;;-3.52;63.57
45793;BME280;31495;42.740;22.908;2023-02-12T01:32:25;94013.88;;;-3.53;63.32
45793;BME280;31495;42.740;22.908;2023-02-12T01:33:25;94024.13;;;-3.54;63.36
45793;BME280;31495;42.740;22.908;2023-02-12T01:34:25;94029.78;;;-3.51;63.38
45793;BME280;31495;42.740;22.908;2023-02-12T01:35:24;93997.31;;;-3.57;63.18
45793;BME280;31495;42.740;22.908;2023-02-12T01:36:24;93984.25;;;-3.63;62.72
45793;BME280;31495;42.740;22.908;2023-02-12T01:37:24;94024.81;;;-3.39;63.00
45793;BME280;31495;42.740;22.908;2023-02-12T01:38:23;93993.25;;;-3.59;63.06
45793;BME280;31495;42.740;22.908;2023-02-12T01:39:23;93995.97;;;-3.62;63.02
45793;BME280;31495;42.740;22.908;2023-02-12T01:40:22;94004.00;;;-3.68;63.15
45793;BME280;31495;42.740;22.908;2023-02-12T01:41:24;94016.63;;;-3.56;63.27
45793;BME280;31495;42.740;22.908;2023-02-12T01:42:24;94001.97;;;-3.51;63.55
45793;BME280;31495;42.740;22.908;2023-02-12T01:43:23;93973.53;;;-3.67;63.44
45793;BME280;31495;42.740;22.908;2023-02-12T01:44:26;93979.59;;;-3.57;62.93
45793;BME280;31495;42.740;22.908;2023-02-12T01:45:43;93955.13;;;-3.69;62.82
45793;BME280;31495;42.740;22.908;2023-02-12T01:46:46;93986.19;;;-3.54;62.96
45793;BME280;31495;42.740;22.908;2023-02-12T01:47:45;93996.59;;;-3.46;62.86
45793;BME280;31495;42.740;22.908;2023-02-12T01:48:46;93969.88;;;-3.63;62.94
45793;BME280;31495;42.740;22.908;2023-02-12T01:49:46;93983.94;;;-3.46;62.86
45793;BME280;31495;42.740;22.908;2023-02-12T01:50:48;93972.19;;;-3.47;62.40
45793;BME280;31495;42.740;22.908;2023-02-12T01:51:54;93988.06;;;-3.45;62.49
45793;BME280;31495;42.740;22.908;2023-02-12T01:52:56;93982.81;;;-3.55;62.79
45793;BME280;31495;42.740;22.908;2023-02-12T01:53:58;93983.56;;;-3.65;63.02
45793;BME280;31495;42.740;22.908;2023-02-12T01:55:02;93991.34;;;-3.56;62.82
45793;BME280;31495;42.740;22.908;2023-02-12T01:56:03;94009.47;;;-3.62;62.93
45793;BME280;31495;42.740;22.908;2023-02-12T01:57:05;93967.41;;;-3.89;62.93
45793;BME280;31495;42.740;22.908;2023-02-12T01:58:06;94005.00;;;-3.71;63.09
45793;BME280;31495;42.740;22.908;2023-02-12T01:59:06;93985.91;;;-3.75;63.24
45793;BME280;31495;42.740;22.908;2023-02-12T02:00:12;94002.84;;;-3.52;63.31
45793;BME280;31495;42.740;22.908;2023-02-12T02:01:25;94006.09;;;-3.49;63.32
45793;BME280;31495;42.740;22.908;2023-02-12T02:02:25;93959.78;;;-3.76;63.50
45793;BME280;31495;42.740;22.908;2023-02-12T02:03:25;93963.53;;;-3.81;63.56
45793;BME280;31495;42.740;22.908;2023-02-12T02:04:30;94007.50;;;-3.45;62.77
45793;BME280;31495;42.740;22.908;2023-02-12T02:05:48;93981.63;;;-3.49;63.00
45793;BME280;31495;42.740;22.908;2023-02-12T02:06:56;94001.94;;;-3.38;63.06
45793;BME280;31495;42.740;22.908;2023-02-12T02:07:56;93996.44;;;-3.32;62.71
45793;BME280;31495;42.740;22.908;2023-02-12T02:08:55;93988.56;;;-3.40;62.52
45793;BME280;31495;42.740;22.908;2023-02-12T02:09:56;93976.66;;;-3.51;62.53
45793;BME280;31495;42.740;22.908;2023-02-12T02:10:55;93989.41;;;-3.39;62.76
45793;BME280;31495;42.740;22.908;2023-02-12T02:11:55;93990.19;;;-3.39;62.62
45793;BME280;31495;42.740;22.908;2023-02-12T02:13:14;93996.03;;;-3.25;62.93
45793;BME280;31495;42.740;22.908;2023-02-12T02:14:32;93982.09;;;-3.31;63.16
45793;BME280;31495;42.740;22.908;2023-02-12T02:15:33;93986.59;;;-3.23;63.00
45793;BME280;31495;42.740;22.908;2023-02-12T02:16:36;94001.47;;;-3.19;62.80
45793;BME280;31495;42.740;22.908;2023-02-12T02:19:08;93969.22;;;-3.28;63.20
45793;BME280;31495;42.740;22.908;2023-02-12T02:22:47;93990.69;;;-2.97;62.21
45793;BME280;31495;42.740;22.908;2023-02-12T02:31:15;93978.97;;;-3.10;62.53
45793;BME280;31495;42.740;22.908;2023-02-12T02:33:52;93978.50;;;-3.16;62.20
45793;BME280;31495;42.740;22.908;2023-02-12T02:35:17;93982.75;;;-3.16;62.31
45793;BME280;31495;42.740;22.908;2023-02-12T02:36:43;93987.22;;;-3.20;61.95
45793;BME280;31495;42.740;22.908;2023-02-12T02:37:48;93975.09;;;-3.27;62.04
45793;BME280;31495;42.740;22.908;2023-02-12T02:39:08;93975.09;;;-3.27;62.24
45793;BME280;31495;42.740;22.908;2023-02-12T02:40:17;93979.34;;;-3.28;62.48
45793;BME280;31495;42.740;22.908;2023-02-12T02:42:05;93984.34;;;-3.39;62.45
45793;BME280;31495;42.740;22.908;2023-02-12T02:43:44;93977.53;;;-3.39;63.19
45793;BME280;31495;42.740;22.908;2023-02-12T02:44:53;93981.34;;;-3.33;62.78
45793;BME280;31495;42.740;22.908;2023-02-12T02:46:19;93976.16;;;-3.19;62.98
45793;BME280;31495;42.740;22.908;2023-02-12T02:47:32;93959.59;;;-3.23;62.49
45793;BME280;31495;42.740;22.908;2023-02-12T02:48:37;93970.63;;;-3.24;62.62
45793;BME280;31495;42.740;22.908;2023-02-12T02:49:51;93978.56;;;-3.04;62.33
45793;BME280;31495;42.740;22.908;2023-02-12T02:50:56;93978.81;;;-2.96;62.23
45793;BME280;31495;42.740;22.908;2023-02-12T02:52:03;93977.47;;;-2.89;62.30
45793;BME280;31495;42.740;22.908;2023-02-12T02:53:40;93979.38;;;-2.80;62.09
45793;BME280;31495;42.740;22.908;2023-02-12T02:54:46;93967.34;;;-2.89;62.00
45793;BME280;31495;42.740;22.908;2023-02-12T02:55:50;93982.28;;;-2.73;62.01
45793;BME280;31495;42.740;22.908;2023-02-12T02:56:55;93967.56;;;-2.92;62.21
45793;BME280;31495;42.740;22.908;2023-02-12T02:58:04;93967.25;;;-2.87;61.99
45793;BME280;31495;42.740;22.908;2023-02-12T02:59:09;93975.09;;;-2.79;62.36
45793;BME280;31495;42.740;22.908;2023-02-12T03:00:14;93988.69;;;-2.80;62.40
45793;BME280;31495;42.740;22.908;2023-02-12T03:01:19;93939.69;;;-3.03;62.43
45793;BME280;31495;42.740;22.908;2023-02-12T03:02:26;93984.50;;;-2.68;62.67
45793;BME280;31495;42.740;22.908;2023-02-12T03:03:41;93983.34;;;-2.64;62.00
45793;BME280;31495;42.740;22.908;2023-02-12T03:04:47;93968.88;;;-2.86;62.06
45793;BME280;31495;42.740;22.908;2023-02-12T03:05:51;93980.38;;;-2.58;62.10
45793;BME280;31495;42.740;22.908;2023-02-12T03:08:25;93980.13;;;-2.66;62.36
45793;BME280;31495;42.740;22.908;2023-02-12T03:09:32;93981.63;;;-2.64;62.66
45793;BME280;31495;42.740;22.908;2023-02-12T03:10:39;93938.59;;;-2.88;62.01
45793;BME280;31495;42.740;22.908;2023-02-12T03:11:42;93945.91;;;-2.72;62.27
45793;BME280;31495;42.740;22.908;2023-02-12T03:13:02;93953.28;;;-2.69;62.57
45793;BME280;31495;42.740;22.908;2023-02-12T03:14:17;93964.59;;;-2.62;61.65
45793;BME280;31495;42.740;22.908;2023-02-12T03:15:43;93976.81;;;-2.55;60.70
45793;BME280;31495;42.740;22.908;2023-02-12T03:17:51;93967.63;;;-2.81;61.84
45793;BME280;31495;42.740;22.908;2023-02-12T03:20:03;93984.94;;;-2.39;61.28
45793;BME280;31495;42.740;22.908;2023-02-12T03:21:11;93985.06;;;-2.41;61.41
45793;BME280;31495;42.740;22.908;2023-02-12T03:22:15;93959.88;;;-2.55;61.79
45793;BME280;31495;42.740;22.908;2023-02-12T03:23:24;93962.63;;;-2.58;61.06
45793;BME280;31495;42.740;22.908;2023-02-12T03:24:36;93969.41;;;-2.34;60.61
45793;BME280;31495;42.740;22.908;2023-02-12T03:25:45;93977.09;;;-2.47;60.68
45793;BME280;31495;42.740;22.908;2023-02-12T03:26:55;93927.81;;;-2.67;59.99
45793;BME280;31495;42.740;22.908;2023-02-12T03:28:05;93930.91;;;-2.51;59.60
45793;BME280;31495;42.740;22.908;2023-02-12T03:29:07;93946.34;;;-2.31;58.39
45793;BME280;31495;42.740;22.908;2023-02-12T03:30:08;93936.69;;;-2.37;59.16
45793;BME280;31495;42.740;22.908;2023-02-12T03:32:51;93945.94;;;-2.14;58.67
45793;BME280;31495;42.740;22.908;2023-02-12T03:35:24;93967.88;;;-2.01;59.02
45793;BME280;31495;42.740;22.908;2023-02-12T03:38:00;93969.03;;;-1.94;58.90
45793;BME280;31495;42.740;22.908;2023-02-12T03:39:28;93965.56;;;-2.05;59.08
45793;BME280;31495;42.740;22.908;2023-02-12T03:40:36;93948.94;;;-2.09;59.95
45793;BME280;31495;42.740;22.908;2023-02-12T03:41:48;93932.34;;;-2.13;58.85
45793;BME280;31495;42.740;22.908;2023-02-12T03:42:53;93946.88;;;-1.92;58.84
45793;BME280;31495;42.740;22.908;2023-02-12T03:44:05;93912.75;;;-2.11;58.75
45793;BME280;31495;42.740;22.908;2023-02-12T03:45:13;93954.94;;;-1.87;58.49
45793;BME280;31495;42.740;22.908;2023-02-12T03:46:30;93961.16;;;-2.03;58.75
45793;BME280;31495;42.740;22.908;2023-02-12T03:47:46;93949.63;;;-1.95;59.11
45793;BME280;31495;42.740;22.908;2023-02-12T03:49:22;93961.41;;;-1.83;58.88
45793;BME280;31495;42.740;22.908;2023-02-12T03:51:48;93958.19;;;-1.85;60.10
45793;BME280;31495;42.740;22.908;2023-02-12T03:52:49;93937.19;;;-1.76;60.38
45793;BME280;31495;42.740;22.908;2023-02-12T03:53:48;93941.34;;;-1.75;59.82
45793;BME280;31495;42.740;22.908;2023-02-12T03:54:48;93921.38;;;-2.02;60.21
45793;BME280;31495;42.740;22.908;2023-02-12T03:55:51;93923.56;;;-2.09;60.80
45793;BME280;31495;42.740;22.908;2023-02-12T03:57:06;93952.41;;;-1.87;60.95
45793;BME280;31495;42.740;22.908;2023-02-12T03:58:08;93949.41;;;-2.04;61.20
45793;BME280;31495;42.740;22.908;2023-02-12T03:59:11;93945.69;;;-2.22;61.35
45793;BME280;31495;42.740;22.908;2023-02-12T04:00:30;93944.22;;;-2.02;61.93
45793;BME280;31495;42.740;22.908;2023-02-12T04:01:32;93914.47;;;-2.23;61.85
45793;BME280;31495;42.740;22.908;2023-02-12T04:02:32;93951.03;;;-2.03;61.73
45793;BME280;31495;42.740;22.908;2023-02-12T04:03:32;93941.09;;;-2.06;61.46
45793;BME280;31495;42.740;22.908;2023-02-12T04:04:32;93953.78;;;-2.06;61.53
45793;BME280;31495;42.740;22.908;2023-02-12T04:05:32;93939.38;;;-2.05;61.40
45793;BME280;31495;42.740;22.908;2023-02-12T04:06:31;93927.75;;;-2.08;61.41
45793;BME280;31495;42.740;22.908;2023-02-12T04:07:31;93940.44;;;-1.96;60.71
45793;BME280;31495;42.740;22.908;2023-02-12T04:08:31;93966.16;;;-1.90;60.31
45793;BME280;31495;42.740;22.908;2023-02-12T04:09:31;93957.13;;;-2.05;60.71
45793;BME280;31495;42.740;22.908;2023-02-12T04:10:41;93914.91;;;-2.29;60.97
45793;BME280;31495;42.740;22.908;2023-02-12T04:13:11;93921.38;;;-2.02;59.44
45793;BME280;31495;42.740;22.908;2023-02-12T04:14:33;93947.34;;;-1.87;59.99
45793;BME280;31495;42.740;22.908;2023-02-12T04:17:24;93933.13;;;-2.24;60.80
45793;BME280;31495;42.740;22.908;2023-02-12T04:18:41;93932.97;;;-2.45;61.29
45793;BME280;31495;42.740;22.908;2023-02-12T04:22:45;93958.13;;;-2.30;62.21
45793;BME280;31495;42.740;22.908;2023-02-12T04:27:24;93969.88;;;-2.29;61.58
45793;BME280;31495;42.740;22.908;2023-02-12T04:31:24;93968.94;;;-2.28;61.38
45793;BME280;31495;42.740;22.908;2023-02-12T04:32:42;93975.06;;;-2.31;61.79
45793;BME280;31495;42.740;22.908;2023-02-12T04:33:49;93978.19;;;-2.27;62.00
45793;BME280;31495;42.740;22.908;2023-02-12T04:35:19;93982.00;;;-2.10;62.02
45793;BME280;31495;42.740;22.908;2023-02-12T04:36:23;93981.00;;;-2.08;62.36
45793;BME280;31495;42.740;22.908;2023-02-12T04:38:40;93951.47;;;-2.09;61.19
45793;BME280;31495;42.740;22.908;2023-02-12T04:39:42;93960.81;;;-2.09;61.37
45793;BME280;31495;42.740;22.908;2023-02-12T04:40:43;93962.06;;;-2.04;61.53
45793;BME280;31495;42.740;22.908;2023-02-12T04:41:43;93963.81;;;-2.04;61.06
45793;BME280;31495;42.740;22.908;2023-02-12T04:42:44;93964.06;;;-1.96;61.26
45793;BME280;31495;42.740;22.908;2023-02-12T04:43:44;93983.56;;;-1.85;61.35
45793;BME280;31495;42.740;22.908;2023-02-12T04:44:44;93968.34;;;-1.96;61.56
45793;BME280;31495;42.740;22.908;2023-02-12T04:45:43;93965.34;;;-2.01;61.14
45793;BME280;31495;42.740;22.908;2023-02-12T04:46:43;93965.69;;;-1.95;61.14
45793;BME280;31495;42.740;22.908;2023-02-12T04:47:42;93942.94;;;-2.08;61.00
45793;BME280;31495;42.740;22.908;2023-02-12T04:48:54;93995.22;;;-1.71;61.02
45793;BME280;31495;42.740;22.908;2023-02-12T04:49:54;93990.50;;;-1.64;60.62
45793;BME280;31495;42.740;22.908;2023-02-12T04:50:53;93983.81;;;-1.65;60.65
45793;BME280;31495;42.740;22.908;2023-02-12T04:51:53;93964.53;;;-1.79;60.47
45793;BME280;31495;42.740;22.908;2023-02-12T04:52:53;93987.03;;;-1.75;60.60
45793;BME280;31495;42.740;22.908;2023-02-12T04:53:52;93983.69;;;-1.87;60.87
45793;BME280;31495;42.740;22.908;2023-02-12T04:54:52;93981.72;;;-1.83;60.98
45793;BME280;31495;42.740;22.908;2023-02-12T04:55:51;93989.31;;;-1.83;60.80
45793;BME280;31495;42.740;22.908;2023-02-12T04:56:51;93991.31;;;-1.75;61.32
45793;BME280;31495;42.740;22.908;2023-02-12T04:57:51;93984.13;;;-1.81;60.95
45793;BME280;31495;42.740;22.908;2023-02-12T04:58:50;93992.22;;;-1.76;61.69
45793;BME280;31495;42.740;22.908;2023-02-12T04:59:52;93971.09;;;-1.88;61.14
45793;BME280;31495;42.740;22.908;2023-02-12T05:00:51;94010.56;;;-1.61;61.36
45793;BME280;31495;42.740;22.908;2023-02-12T05:01:50;93976.53;;;-1.81;61.02
45793;BME280;31495;42.740;22.908;2023-02-12T05:02:50;94009.75;;;-1.62;61.25
45793;BME280;31495;42.740;22.908;2023-02-12T05:03:50;94004.00;;;-1.64;61.23
45793;BME280;31495;42.740;22.908;2023-02-12T05:04:50;94011.47;;;-1.51;61.41
45793;BME280;31495;42.740;22.908;2023-02-12T05:05:50;94011.59;;;-1.53;61.15
45793;BME280;31495;42.740;22.908;2023-02-12T05:06:49;93990.84;;;-1.58;61.21
45793;BME280;31495;42.740;22.908;2023-02-12T05:07:49;93996.03;;;-1.59;61.10
45793;BME280;31495;42.740;22.908;2023-02-12T05:08:48;94001.56;;;-1.54;61.11
45793;BME280;31495;42.740;22.908;2023-02-12T05:09:50;93996.13;;;-1.50;61.02
45793;BME280;31495;42.740;22.908;2023-02-12T05:10:49;93994.53;;;-1.62;60.07
45793;BME280;31495;42.740;22.908;2023-02-12T05:11:49;93972.47;;;-1.84;60.98
45793;BME280;31495;42.740;22.908;2023-02-12T05:12:51;93995.56;;;-1.76;61.62
45793;BME280;31495;42.740;22.908;2023-02-12T05:13:51;93989.34;;;-1.72;60.64
45793;BME280;31495;42.740;22.908;2023-02-12T05:14:51;93974.69;;;-1.79;60.36
45793;BME280;31495;42.740;22.908;2023-02-12T05:15:51;93999.28;;;-1.57;60.40
45793;BME280;31495;42.740;22.908;2023-02-12T05:16:50;94009.41;;;-1.35;60.04
45793;BME280;31495;42.740;22.908;2023-02-12T05:17:50;93997.19;;;-1.41;59.53
45793;BME280;31495;42.740;22.908;2023-02-12T05:18:49;94017.50;;;-1.30;59.55
45793;BME280;31495;42.740;22.908;2023-02-12T05:19:48;94028.13;;;-1.24;59.76
45793;BME280;31495;42.740;22.908;2023-02-12T05:20:56;94006.06;;;-1.35;59.70
45793;BME280;31495;42.740;22.908;2023-02-12T05:21:56;94002.72;;;-1.47;60.49
45793;BME280;31495;42.740;22.908;2023-02-12T05:22:55;94028.13;;;-1.47;61.05
45793;BME280;31495;42.740;22.908;2023-02-12T05:23:55;94010.44;;;-1.60;61.41
45793;BME280;31495;42.740;22.908;2023-02-12T05:24:54;93995.78;;;-1.68;62.04
45793;BME280;31495;42.740;22.908;2023-02-12T05:25:57;94017.50;;;-1.52;61.59
45793;BME280;31495;42.740;22.908;2023-02-12T05:26:57;94009.41;;;-1.46;62.14
45793;BME280;31495;42.740;22.908;2023-02-12T05:27:56;93993.94;;;-1.54;62.06
45793;BME280;31495;42.740;22.908;2023-02-12T05:28:56;94025.34;;;-1.33;62.23
45793;BME280;31495;42.740;22.908;2023-02-12T05:29:56;94014.38;;;-1.33;62.08
45793;BME280;31495;42.740;22.908;2023-02-12T05:31:01;94014.81;;;-1.28;62.00
45793;BME280;31495;42.740;22.908;2023-02-12T05:32:01;94021.88;;;-1.20;62.04
45793;BME280;31495;42.740;22.908;2023-02-12T05:33:01;94001.91;;;-1.36;62.93
45793;BME280;31495;42.740;22.908;2023-02-12T05:34:00;94009.19;;;-1.32;63.28
45793;BME280;31495;42.740;22.908;2023-02-12T05:35:00;94020.28;;;-1.21;63.71
45793;BME280;31495;42.740;22.908;2023-02-12T05:36:07;94021.63;;;-1.40;64.50
45793;BME280;31495;42.740;22.908;2023-02-12T05:37:07;94024.28;;;-1.41;65.11
45793;BME280;31495;42.740;22.908;2023-02-12T05:38:06;94023.84;;;-1.35;65.44
45793;BME280;31495;42.740;22.908;2023-02-12T05:39:06;94001.78;;;-1.35;65.22
45793;BME280;31495;42.740;22.908;2023-02-12T05:40:06;94022.88;;;-1.12;65.30
45793;BME280;31495;42.740;22.908;2023-02-12T05:41:18;94024.50;;;-0.99;64.59
45793;BME280;31495;42.740;22.908;2023-02-12T05:42:18;94000.53;;;-1.18;64.98
45793;BME280;31495;42.740;22.908;2023-02-12T05:43:18;94015.16;;;-0.99;64.88
45793;BME280;31495;42.740;22.908;2023-02-12T05:44:17;94009.38;;;-0.89;65.03
45793;BME280;31495;42.740;22.908;2023-02-12T05:45:16;93993.78;;;-0.96;64.84
45793;BME280;31495;42.740;22.908;2023-02-12T05:46:17;94012.22;;;-0.71;64.67
45793;BME280;31495;42.740;22.908;2023-02-12T05:47:17;94026.38;;;-0.58;64.49
45793;BME280;31495;42.740;22.908;2023-02-12T05:48:16;94008.97;;;-0.62;64.41
45793;BME280;31495;42.740;22.908;2023-02-12T05:49:16;94009.75;;;-0.62;64.62
45793;BME280;31495;42.740;22.908;2023-02-12T05:50:15;93977.59;;;-0.84;65.15
45793;BME280;31495;42.740;22.908;2023-02-12T05:51:20;94007.72;;;-0.79;65.64
45793;BME280;31495;42.740;22.908;2023-02-12T05:52:20;93979.91;;;-0.92;66.05
45793;BME280;31495;42.740;22.908;2023-02-12T05:53:19;94007.50;;;-0.87;67.33
45793;BME280;31495;42.740;22.908;2023-02-12T05:54:19;93957.00;;;-1.13;67.80
45793;BME280;31495;42.740;22.908;2023-02-12T05:55:18;93998.88;;;-1.07;68.56
45793;BME280;31495;42.740;22.908;2023-02-12T05:56:24;94002.13;;;-1.17;68.89
45793;BME280;31495;42.740;22.908;2023-02-12T05:57:24;94019.53;;;-1.01;69.64
45793;BME280;31495;42.740;22.908;2023-02-12T05:58:23;93998.88;;;-1.07;69.14
45793;BME280;31495;42.740;22.908;2023-02-12T05:59:22;93996.69;;;-1.01;69.50
45793;BME280;31495;42.740;22.908;2023-02-12T06:00:22;94028.66;;;-0.87;69.65
45793;BME280;31495;42.740;22.908;2023-02-12T06:01:24;93970.50;;;-1.13;69.74
45793;BME280;31495;42.740;22.908;2023-02-12T06:02:24;94017.09;;;-0.80;69.71
45793;BME280;31495;42.740;22.908;2023-02-12T06:03:23;94011.66;;;-0.75;69.57
45793;BME280;31495;42.740;22.908;2023-02-12T06:04:26;93996.63;;;-0.78;69.61
45793;BME280;31495;42.740;22.908;2023-02-12T06:05:25;93992.47;;;-0.79;69.63
45793;BME280;31495;42.740;22.908;2023-02-12T06:06:26;93986.63;;;-0.91;69.74
45793;BME280;31495;42.740;22.908;2023-02-12T06:07:26;94006.81;;;-0.78;69.78